Terminal Aerodrome Forecast
Issued by NWS

Home | Current Version | Previous Version | Text Only | Print | Product List | Glossary On
Versions: 1 2 3 4 5 6 7 8 9 10 11 12 13 14 15 16 17
000
FTUS46 KMTR 152300
TAFOAK
TAF
KOAK 152320Z 1600/1706 28012KT P6SM FEW200
     FM160400 29008KT P6SM FEW010
     FM161000 03004KT P6SM BKN010
     FM161500 34004KT P6SM FEW010
     FM162100 28014KT P6SM SKC=

USA.gov is the U.S. government's official web portal to all federal, state and local government web resources and services.